sensor_id;sensor_type;location;lat;lon;timestamp;pressure;altitude;pressure_sealevel;temperature;humidity
76156;BME280;64906;51.290;7.348;2023-04-03T00:00:51;99860.94;;;18.68;41.08
76156;BME280;64906;51.290;7.348;2023-04-03T00:03:17;99859.78;;;18.64;41.08
76156;BME280;64906;51.290;7.348;2023-04-03T00:05:43;99861.47;;;18.65;40.96
76156;BME280;64906;51.290;7.348;2023-04-03T00:08:08;99854.84;;;18.61;41.15
76156;BME280;64906;51.290;7.348;2023-04-03T00:10:36;99857.81;;;18.60;41.09
76156;BME280;64906;51.290;7.348;2023-04-03T00:13:05;99863.28;;;18.60;41.34
76156;BME280;64906;51.290;7.348;2023-04-03T00:15:31;99858.84;;;18.54;41.35
76156;BME280;64906;51.290;7.348;2023-04-03T00:17:56;99869.84;;;18.59;41.10
76156;BME280;64906;51.290;7.348;2023-04-03T00:20:22;99870.38;;;18.56;40.94
76156;BME280;64906;51.290;7.348;2023-04-03T00:22:47;99868.69;;;18.55;41.10
76156;BME280;64906;51.290;7.348;2023-04-03T00:25:12;99857.19;;;18.53;41.01
76156;BME280;64906;51.290;7.348;2023-04-03T00:27:38;99871.19;;;18.56;41.02
76156;BME280;64906;51.290;7.348;2023-04-03T00:30:06;99876.38;;;18.58;41.18
76156;BME280;64906;51.290;7.348;2023-04-03T00:32:32;99869.28;;;18.57;41.08
76156;BME280;64906;51.290;7.348;2023-04-03T00:34:57;99874.50;;;18.58;40.99
76156;BME280;64906;51.290;7.348;2023-04-03T00:37:23;99873.66;;;18.58;41.08
76156;BME280;64906;51.290;7.348;2023-04-03T00:39:48;99875.59;;;18.57;40.96
76156;BME280;64906;51.290;7.348;2023-04-03T00:42:13;99864.38;;;18.59;41.26
76156;BME280;64906;51.290;7.348;2023-04-03T00:47:07;99862.16;;;18.56;41.19
76156;BME280;64906;51.290;7.348;2023-04-03T00:49:34;99872.09;;;18.62;40.94
76156;BME280;64906;51.290;7.348;2023-04-03T00:52:01;99875.84;;;18.56;40.95
76156;BME280;64906;51.290;7.348;2023-04-03T00:54:26;99873.97;;;18.61;41.09
76156;BME280;64906;51.290;7.348;2023-04-03T00:56:54;99863.81;;;18.57;41.13
76156;BME280;64906;51.290;7.348;2023-04-03T00:59:24;99867.13;;;18.59;41.04
76156;BME280;64906;51.290;7.348;2023-04-03T01:01:53;99869.03;;;18.58;41.04
76156;BME280;64906;51.290;7.348;2023-04-03T01:04:30;99865.97;;;18.55;41.18
76156;BME280;64906;51.290;7.348;2023-04-03T01:07:00;99873.59;;;18.53;41.32
76156;BME280;64906;51.290;7.348;2023-04-03T01:09:26;99874.94;;;18.50;41.03
76156;BME280;64906;51.290;7.348;2023-04-03T01:11:53;99873.34;;;18.54;41.21
76156;BME280;64906;51.290;7.348;2023-04-03T01:14:18;99872.66;;;18.42;41.27
76156;BME280;64906;51.290;7.348;2023-04-03T01:16:54;99870.78;;;18.48;41.22
76156;BME280;64906;51.290;7.348;2023-04-03T01:19:21;99875.44;;;18.47;41.14
76156;BME280;64906;51.290;7.348;2023-04-03T01:22:03;99874.88;;;18.45;41.25
76156;BME280;64906;51.290;7.348;2023-04-03T01:24:37;99872.13;;;18.45;41.10
76156;BME280;64906;51.290;7.348;2023-04-03T01:27:05;99872.72;;;18.47;41.03
76156;BME280;64906;51.290;7.348;2023-04-03T01:29:31;99869.97;;;18.47;41.03
76156;BME280;64906;51.290;7.348;2023-04-03T01:31:58;99872.38;;;18.44;41.11
76156;BME280;64906;51.290;7.348;2023-04-03T01:34:24;99871.28;;;18.45;41.06
76156;BME280;64906;51.290;7.348;2023-04-03T01:36:50;99878.13;;;18.42;41.12
76156;BME280;64906;51.290;7.348;2023-04-03T01:39:16;99870.97;;;18.41;41.14
76156;BME280;64906;51.290;7.348;2023-04-03T01:41:41;99866.34;;;18.42;41.04
76156;BME280;64906;51.290;7.348;2023-04-03T01:44:06;99876.91;;;18.38;41.32
76156;BME280;64906;51.290;7.348;2023-04-03T01:46:32;99867.06;;;18.37;41.11
76156;BME280;64906;51.290;7.348;2023-04-03T01:48:57;99870.91;;;18.36;41.13
76156;BME280;64906;51.290;7.348;2023-04-03T01:51:23;99872.47;;;18.32;40.98
76156;BME280;64906;51.290;7.348;2023-04-03T01:53:48;99873.75;;;18.25;41.24
76156;BME280;64906;51.290;7.348;2023-04-03T01:56:13;99860.94;;;18.30;41.04
76156;BME280;64906;51.290;7.348;2023-04-03T01:58:39;99867.25;;;18.31;41.32
76156;BME280;64906;51.290;7.348;2023-04-03T02:01:04;99859.31;;;18.29;41.14
76156;BME280;64906;51.290;7.348;2023-04-03T02:03:30;99872.72;;;18.31;41.25
76156;BME280;64906;51.290;7.348;2023-04-03T02:05:56;99869.41;;;18.29;41.07
76156;BME280;64906;51.290;7.348;2023-04-03T02:08:21;99866.94;;;18.27;41.16
76156;BME280;64906;51.290;7.348;2023-04-03T02:10:47;99863.03;;;18.23;41.13
76156;BME280;64906;51.290;7.348;2023-04-03T02:13:13;99872.66;;;18.26;41.25
76156;BME280;64906;51.290;7.348;2023-04-03T02:15:39;99871.56;;;18.27;41.11
76156;BME280;64906;51.290;7.348;2023-04-03T02:18:05;99875.38;;;18.26;41.16
76156;BME280;64906;51.290;7.348;2023-04-03T02:20:30;99876.50;;;18.30;41.16
76156;BME280;64906;51.290;7.348;2023-04-03T02:22:55;99876.50;;;18.30;41.01
76156;BME280;64906;51.290;7.348;2023-04-03T02:25:21;99874.28;;;18.27;41.03
76156;BME280;64906;51.290;7.348;2023-04-03T02:27:46;99872.72;;;18.31;41.02
76156;BME280;64906;51.290;7.348;2023-04-03T02:30:11;99876.78;;;18.28;41.05
76156;BME280;64906;51.290;7.348;2023-04-03T02:32:37;99875.47;;;18.31;40.85
76156;BME280;64906;51.290;7.348;2023-04-03T02:35:03;99874.44;;;18.37;41.00
76156;BME280;64906;51.290;7.348;2023-04-03T02:37:28;99877.44;;;18.35;41.11
76156;BME280;64906;51.290;7.348;2023-04-03T02:39:54;99888.09;;;18.37;40.98
76156;BME280;64906;51.290;7.348;2023-04-03T02:42:19;99890.59;;;18.38;40.80
76156;BME280;64906;51.290;7.348;2023-04-03T02:44:45;99892.84;;;18.41;40.83
76156;BME280;64906;51.290;7.348;2023-04-03T02:47:10;99897.50;;;18.41;40.99
76156;BME280;64906;51.290;7.348;2023-04-03T02:49:35;99894.19;;;18.39;41.03
76156;BME280;64906;51.290;7.348;2023-04-03T02:52:00;99893.94;;;18.40;40.94
76156;BME280;64906;51.290;7.348;2023-04-03T02:54:26;99895.84;;;18.40;40.98
76156;BME280;64906;51.290;7.348;2023-04-03T02:56:53;99901.03;;;18.41;40.92
76156;BME280;64906;51.290;7.348;2023-04-03T02:59:19;99899.97;;;18.42;41.10
76156;BME280;64906;51.290;7.348;2023-04-03T03:01:45;99892.50;;;18.38;41.00
76156;BME280;64906;51.290;7.348;2023-04-03T03:04:11;99889.31;;;18.41;41.04
76156;BME280;64906;51.290;7.348;2023-04-03T03:06:36;99900.81;;;18.43;40.98
76156;BME280;64906;51.290;7.348;2023-04-03T03:09:02;99896.31;;;18.37;41.12
76156;BME280;64906;51.290;7.348;2023-04-03T03:11:29;99892.50;;;18.38;40.90
76156;BME280;64906;51.290;7.348;2023-04-03T03:13:54;99894.41;;;18.37;40.96
76156;BME280;64906;51.290;7.348;2023-04-03T03:16:20;99892.50;;;18.38;40.91
76156;BME280;64906;51.290;7.348;2023-04-03T03:18:45;99891.69;;;18.37;40.96
76156;BME280;64906;51.290;7.348;2023-04-03T03:21:10;99903.94;;;18.35;41.03
76156;BME280;64906;51.290;7.348;2023-04-03T03:23:36;99903.38;;;18.33;41.01
76156;BME280;64906;51.290;7.348;2023-04-03T03:26:05;99896.31;;;18.37;40.90
76156;BME280;64906;51.290;7.348;2023-04-03T03:28:31;99891.94;;;18.36;40.91
76156;BME280;64906;51.290;7.348;2023-04-03T03:30:57;99885.88;;;18.34;40.79
76156;BME280;64906;51.290;7.348;2023-04-03T03:33:22;99888.03;;;18.32;41.02
76156;BME280;64906;51.290;7.348;2023-04-03T03:35:48;99884.25;;;18.33;40.94
76156;BME280;64906;51.290;7.348;2023-04-03T03:38:13;99881.97;;;18.30;41.02
76156;BME280;64906;51.290;7.348;2023-04-03T03:40:39;99885.56;;;18.30;40.89
76156;BME280;64906;51.290;7.348;2023-04-03T03:43:04;99892.38;;;18.28;41.01
76156;BME280;64906;51.290;7.348;2023-04-03T03:45:30;99889.31;;;18.24;40.98
76156;BME280;64906;51.290;7.348;2023-04-03T03:47:56;99888.78;;;18.27;40.94
76156;BME280;64906;51.290;7.348;2023-04-03T03:50:21;99892.69;;;18.31;41.04
76156;BME280;64906;51.290;7.348;2023-04-03T03:52:47;99894.50;;;18.26;40.97
76156;BME280;64906;51.290;7.348;2023-04-03T03:55:12;99890.75;;;18.32;40.80
76156;BME280;64906;51.290;7.348;2023-04-03T03:57:37;99896.22;;;18.32;40.82
76156;BME280;64906;51.290;7.348;2023-04-03T04:00:03;99898.16;;;18.31;40.87
76156;BME280;64906;51.290;7.348;2023-04-03T04:02:29;99897.91;;;18.33;40.79
76156;BME280;64906;51.290;7.348;2023-04-03T04:04:55;99903.63;;;18.31;40.85
76156;BME280;64906;51.290;7.348;2023-04-03T04:07:21;99901.13;;;18.30;41.07
76156;BME280;64906;51.290;7.348;2023-04-03T04:09:46;99899.81;;;18.32;40.79
76156;BME280;64906;51.290;7.348;2023-04-03T04:12:12;99898.97;;;18.32;40.73
76156;BME280;64906;51.290;7.348;2023-04-03T04:14:37;99899.56;;;18.34;40.77
76156;BME280;64906;51.290;7.348;2023-04-03T04:17:02;99899.81;;;18.32;41.02
76156;BME280;64906;51.290;7.348;2023-04-03T04:19:28;99897.66;;;18.34;40.67
76156;BME280;64906;51.290;7.348;2023-04-03T04:21:53;99895.44;;;18.31;40.96
76156;BME280;64906;51.290;7.348;2023-04-03T04:24:19;99899.03;;;18.37;40.93
76156;BME280;64906;51.290;7.348;2023-04-03T04:26:44;99905.59;;;18.36;40.92
76156;BME280;64906;51.290;7.348;2023-04-03T04:29:10;99900.72;;;18.38;41.32
76156;BME280;64906;51.290;7.348;2023-04-03T04:31:35;99899.28;;;18.35;41.11
76156;BME280;64906;51.290;7.348;2023-04-03T04:34:01;99904.25;;;18.38;40.96
76156;BME280;64906;51.290;7.348;2023-04-03T04:36:26;99911.06;;;18.36;40.94
76156;BME280;64906;51.290;7.348;2023-04-03T04:38:51;99907.09;;;18.27;41.33
76156;BME280;64906;51.290;7.348;2023-04-03T04:41:20;99908.25;;;18.31;41.27
76156;BME280;64906;51.290;7.348;2023-04-03T04:43:48;99916.22;;;18.32;41.11
76156;BME280;64906;51.290;7.348;2023-04-03T04:46:13;99915.13;;;18.33;41.16
76156;BME280;64906;51.290;7.348;2023-04-03T04:48:38;99921.16;;;18.35;41.34
76156;BME280;64906;51.290;7.348;2023-04-03T04:51:05;99923.81;;;18.30;41.18
76156;BME280;64906;51.290;7.348;2023-04-03T04:53:31;99926.88;;;18.34;41.31
76156;BME280;64906;51.290;7.348;2023-04-03T04:55:56;99927.81;;;18.23;41.55
76156;BME280;64906;51.290;7.348;2023-04-03T04:58:21;99929.38;;;18.19;41.70
76156;BME280;64906;51.290;7.348;2023-04-03T05:00:47;99925.66;;;18.25;41.70
76156;BME280;64906;51.290;7.348;2023-04-03T05:03:13;99933.53;;;18.21;41.88
76156;BME280;64906;51.290;7.348;2023-04-03T05:05:39;99937.66;;;18.24;41.77
76156;BME280;64906;51.290;7.348;2023-04-03T05:08:05;99946.38;;;18.21;41.70
76156;BME280;64906;51.290;7.348;2023-04-03T05:10:30;99936.03;;;18.23;41.88
76156;BME280;64906;51.290;7.348;2023-04-03T05:12:57;99936.81;;;18.23;41.96
76156;BME280;64906;51.290;7.348;2023-04-03T05:15:22;99943.13;;;18.24;41.88
76156;BME280;64906;51.290;7.348;2023-04-03T05:17:48;99951.50;;;18.34;41.86
76156;BME280;64906;51.290;7.348;2023-04-03T05:20:13;99956.44;;;18.37;41.70
76156;BME280;64906;51.290;7.348;2023-04-03T05:22:38;99949.34;;;18.36;41.71
76156;BME280;64906;51.290;7.348;2023-04-03T05:25:05;99956.97;;;18.34;41.77
76156;BME280;64906;51.290;7.348;2023-04-03T05:27:30;99955.16;;;18.39;41.51
76156;BME280;64906;51.290;7.348;2023-04-03T05:29:56;99957.78;;;18.34;41.83
76156;BME280;64906;51.290;7.348;2023-04-03T05:32:22;99963.78;;;18.31;41.90
76156;BME280;64906;51.290;7.348;2023-04-03T05:34:48;99964.66;;;18.37;41.91
76156;BME280;64906;51.290;7.348;2023-04-03T05:37:13;99964.75;;;18.42;41.75
76156;BME280;64906;51.290;7.348;2023-04-03T05:39:38;99965.59;;;18.42;41.83
76156;BME280;64906;51.290;7.348;2023-04-03T05:42:06;99971.91;;;18.43;41.64
76156;BME280;64906;51.290;7.348;2023-04-03T05:44:32;99977.94;;;18.45;41.96
76156;BME280;64906;51.290;7.348;2023-04-03T05:46:58;99979.84;;;18.44;41.86
76156;BME280;64906;51.290;7.348;2023-04-03T05:49:23;99980.16;;;18.48;41.69
76156;BME280;64906;51.290;7.348;2023-04-03T05:51:49;99980.16;;;18.48;41.91
76156;BME280;64906;51.290;7.348;2023-04-03T05:54:24;99989.44;;;18.47;41.91
76156;BME280;64906;51.290;7.348;2023-04-03T05:56:50;99985.63;;;18.48;41.95
76156;BME280;64906;51.290;7.348;2023-04-03T05:59:17;99983.72;;;18.48;42.09
76156;BME280;64906;51.290;7.348;2023-04-03T06:01:43;99992.25;;;18.52;41.97
76156;BME280;64906;51.290;7.348;2023-04-03T06:04:08;99989.19;;;18.48;41.83
76156;BME280;64906;51.290;7.348;2023-04-03T06:06:50;99986.78;;;18.52;42.03
76156;BME280;64906;51.290;7.348;2023-04-03T06:09:17;99988.59;;;18.46;41.87
76156;BME280;64906;51.290;7.348;2023-04-03T06:11:43;99996.38;;;18.54;41.96
76156;BME280;64906;51.290;7.348;2023-04-03T06:14:09;99993.44;;;18.56;42.09
76156;BME280;64906;51.290;7.348;2023-04-03T06:16:35;99993.44;;;18.56;41.88
76156;BME280;64906;51.290;7.348;2023-04-03T06:19:00;99997.56;;;18.58;41.78
76156;BME280;64906;51.290;7.348;2023-04-03T06:21:26;100003.03;;;18.58;41.77
76156;BME280;64906;51.290;7.348;2023-04-03T06:23:52;100010.91;;;18.55;42.21
76156;BME280;64906;51.290;7.348;2023-04-03T06:26:17;100005.44;;;18.55;41.91
76156;BME280;64906;51.290;7.348;2023-04-03T06:28:42;100006.00;;;18.57;42.09
76156;BME280;64906;51.290;7.348;2023-04-03T06:31:08;100007.66;;;18.58;42.04
76156;BME280;64906;51.290;7.348;2023-04-03T06:33:34;100005.75;;;18.58;42.06
76156;BME280;64906;51.290;7.348;2023-04-03T06:35:59;100010.47;;;18.63;41.96
76156;BME280;64906;51.290;7.348;2023-04-03T06:38:25;100007.16;;;18.61;42.00
76156;BME280;64906;51.290;7.348;2023-04-03T06:40:51;100011.31;;;18.63;41.93
76156;BME280;64906;51.290;7.348;2023-04-03T06:43:17;100010.53;;;18.68;42.00
76156;BME280;64906;51.290;7.348;2023-04-03T06:45:42;100001.03;;;18.70;41.77
76156;BME280;64906;51.290;7.348;2023-04-03T06:48:07;100010.88;;;18.71;41.68
76156;BME280;64906;51.290;7.348;2023-04-03T06:50:33;100000.00;;;18.77;41.80
76156;BME280;64906;51.290;7.348;2023-04-03T06:52:58;100003.00;;;18.75;41.78
76156;BME280;64906;51.290;7.348;2023-04-03T06:55:23;100008.81;;;18.79;41.81
76156;BME280;64906;51.290;7.348;2023-04-03T06:57:49;100004.72;;;18.81;41.83
76156;BME280;64906;51.290;7.348;2023-04-03T07:00:15;100001.41;;;18.79;41.68
76156;BME280;64906;51.290;7.348;2023-04-03T07:02:41;100005.31;;;18.83;41.87
76156;BME280;64906;51.290;7.348;2023-04-03T07:05:07;100001.47;;;18.84;41.64
76156;BME280;64906;51.290;7.348;2023-04-03T07:07:34;99996.00;;;18.84;41.92
76156;BME280;64906;51.290;7.348;2023-04-03T07:10:00;100011.09;;;18.87;41.62
76156;BME280;64906;51.290;7.348;2023-04-03T07:12:25;100006.47;;;18.87;41.80
76156;BME280;64906;51.290;7.348;2023-04-03T07:14:51;100008.69;;;18.90;41.65
76156;BME280;64906;51.290;7.348;2023-04-03T07:17:16;100014.16;;;18.90;41.64
76156;BME280;64906;51.290;7.348;2023-04-03T07:19:42;100011.97;;;18.92;41.56
76156;BME280;64906;51.290;7.348;2023-04-03T07:22:07;100015.56;;;18.93;41.81
76156;BME280;64906;51.290;7.348;2023-04-03T07:24:33;100016.38;;;18.93;41.77
76156;BME280;64906;51.290;7.348;2023-04-03T07:26:58;100014.22;;;18.95;41.58
76156;BME280;64906;51.290;7.348;2023-04-03T07:29:23;100021.34;;;18.96;41.69
76156;BME280;64906;51.290;7.348;2023-04-03T07:31:49;100016.72;;;18.97;41.75
76156;BME280;64906;51.290;7.348;2023-04-03T07:34:15;100019.19;;;18.98;41.78
76156;BME280;64906;51.290;7.348;2023-04-03T07:36:40;100025.00;;;19.02;41.68
76156;BME280;64906;51.290;7.348;2023-04-03T07:39:06;100020.34;;;19.02;41.67
76156;BME280;64906;51.290;7.348;2023-04-03T07:41:33;100032.94;;;19.03;41.53
76156;BME280;64906;51.290;7.348;2023-04-03T07:43:58;100028.03;;;19.05;41.53
76156;BME280;64906;51.290;7.348;2023-04-03T07:46:24;100034.09;;;19.07;41.69
76156;BME280;64906;51.290;7.348;2023-04-03T07:48:49;100033.28;;;19.07;41.44
76156;BME280;64906;51.290;7.348;2023-04-03T07:51:15;100029.69;;;19.06;41.45
76156;BME280;64906;51.290;7.348;2023-04-03T07:53:41;100026.44;;;19.09;41.74
76156;BME280;64906;51.290;7.348;2023-04-03T07:56:07;100032.50;;;19.11;41.68
76156;BME280;64906;51.290;7.348;2023-04-03T07:58:32;100031.16;;;19.14;41.72
76156;BME280;64906;51.290;7.348;2023-04-03T08:00:58;100029.25;;;19.14;41.63
76156;BME280;64906;51.290;7.348;2023-04-03T08:03:24;100035.06;;;19.18;41.49
76156;BME280;64906;51.290;7.348;2023-04-03T08:05:50;100034.22;;;19.17;41.56
76156;BME280;64906;51.290;7.348;2023-04-03T08:08:18;100032.91;;;19.20;41.38
76156;BME280;64906;51.290;7.348;2023-04-03T08:10:48;100039.69;;;19.17;41.47
76156;BME280;64906;51.290;7.348;2023-04-03T08:13:14;100044.16;;;19.23;41.55
76156;BME280;64906;51.290;7.348;2023-04-03T08:15:40;100034.88;;;19.24;41.41
76156;BME280;64906;51.290;7.348;2023-04-03T08:18:05;100042.56;;;19.27;41.47
76156;BME280;64906;51.290;7.348;2023-04-03T08:20:31;100044.00;;;19.30;41.36
76156;BME280;64906;51.290;7.348;2023-04-03T08:22:56;100041.25;;;19.30;41.30
76156;BME280;64906;51.290;7.348;2023-04-03T08:25:21;100035.56;;;19.31;41.28
76156;BME280;64906;51.290;7.348;2023-04-03T08:27:47;100040.50;;;19.34;41.18
76156;BME280;64906;51.290;7.348;2023-04-03T08:30:12;100042.16;;;19.35;41.20
76156;BME280;64906;51.290;7.348;2023-04-03T08:32:38;100043.00;;;19.36;40.98
76156;BME280;64906;51.290;7.348;2023-04-03T08:35:04;100047.63;;;19.35;41.17
76156;BME280;64906;51.290;7.348;2023-04-03T08:37:30;100041.63;;;19.38;41.10
76156;BME280;64906;51.290;7.348;2023-04-03T08:39:55;100038.66;;;19.40;40.89
76156;BME280;64906;51.290;7.348;2023-04-03T08:45:21;100042.78;;;19.42;40.97
76156;BME280;64906;51.290;7.348;2023-04-03T08:48:06;100047.19;;;19.43;40.76
76156;BME280;64906;51.290;7.348;2023-04-03T08:50:47;100045.53;;;19.42;40.82
76156;BME280;64906;51.290;7.348;2023-04-03T08:53:26;100045.03;;;19.45;40.97
76156;BME280;64906;51.290;7.348;2023-04-03T08:55:54;100047.75;;;19.45;40.68
76156;BME280;64906;51.290;7.348;2023-04-03T08:58:24;100056.56;;;19.47;40.77
76156;BME280;64906;51.290;7.348;2023-04-03T09:00:57;100052.72;;;19.48;40.69
76156;BME280;64906;51.290;7.348;2023-04-03T09:03:23;100059.03;;;19.49;40.74
76156;BME280;64906;51.290;7.348;2023-04-03T09:13:59;100059.03;;;19.49;40.62
76156;BME280;64906;51.290;7.348;2023-04-03T09:16:47;100059.63;;;19.51;40.34
76156;BME280;64906;51.290;7.348;2023-04-03T09:21:58;100052.19;;;19.51;40.36
76156;BME280;64906;51.290;7.348;2023-04-03T09:24:26;100052.53;;;19.55;40.10
76156;BME280;64906;51.290;7.348;2023-04-03T09:27:08;100052.19;;;19.51;40.14
76156;BME280;64906;51.290;7.348;2023-04-03T09:29:38;100050.03;;;19.53;40.37
76156;BME280;64906;51.290;7.348;2023-04-03T09:32:19;100049.78;;;19.55;40.38
76156;BME280;64906;51.290;7.348;2023-04-03T09:34:48;100043.72;;;19.53;40.46
76156;BME280;64906;51.290;7.348;2023-04-03T09:37:43;100047.03;;;19.55;40.23
76156;BME280;64906;51.290;7.348;2023-04-03T09:40:33;100044.06;;;19.56;40.23
76156;BME280;64906;51.290;7.348;2023-04-03T09:45:41;100036.66;;;19.57;40.09
76156;BME280;64906;51.290;7.348;2023-04-03T09:50:52;100042.16;;;19.57;40.27
76156;BME280;64906;51.290;7.348;2023-04-03T09:55:59;100041.06;;;19.58;40.17
76156;BME280;64906;51.290;7.348;2023-04-03T09:58:38;100042.72;;;19.59;39.99
76156;BME280;64906;51.290;7.348;2023-04-03T10:04:03;100043.53;;;19.59;40.13
76156;BME280;64906;51.290;7.348;2023-04-03T10:06:31;100035.31;;;19.59;40.13
76156;BME280;64906;51.290;7.348;2023-04-03T10:09:03;100044.13;;;19.61;39.72
76156;BME280;64906;51.290;7.348;2023-04-03T10:11:29;100033.72;;;19.63;39.85
76156;BME280;64906;51.290;7.348;2023-04-03T10:13:57;100033.72;;;19.63;39.85
76156;BME280;64906;51.290;7.348;2023-04-03T10:16:28;100022.78;;;19.63;39.85
76156;BME280;64906;51.290;7.348;2023-04-03T10:19:18;100026.91;;;19.66;39.83
76156;BME280;64906;51.290;7.348;2023-04-03T10:21:57;100022.25;;;19.66;39.93
76156;BME280;64906;51.290;7.348;2023-04-03T10:27:19;100028.56;;;19.67;39.70
76156;BME280;64906;51.290;7.348;2023-04-03T10:30:19;100027.72;;;19.66;39.76
76156;BME280;64906;51.290;7.348;2023-04-03T10:35:44;100038.16;;;19.69;39.75
76156;BME280;64906;51.290;7.348;2023-04-03T10:38:18;100023.91;;;19.67;39.75
76156;BME280;64906;51.290;7.348;2023-04-03T10:41:10;100023.41;;;19.70;39.75
76156;BME280;64906;51.290;7.348;2023-04-03T10:43:43;100026.69;;;19.72;39.73
76156;BME280;64906;51.290;7.348;2023-04-03T10:46:16;100020.94;;;19.74;39.64
76156;BME280;64906;51.290;7.348;2023-04-03T10:51:31;100015.72;;;19.72;39.62
76156;BME280;64906;51.290;7.348;2023-04-03T10:54:13;100014.41;;;19.75;39.72
76156;BME280;64906;51.290;7.348;2023-04-03T10:56:48;100022.38;;;19.76;39.54
76156;BME280;64906;51.290;7.348;2023-04-03T11:01:48;100014.72;;;19.78;39.66
76156;BME280;64906;51.290;7.348;2023-04-03T11:04:16;100011.41;;;19.76;39.51
76156;BME280;64906;51.290;7.348;2023-04-03T11:06:51;100005.66;;;19.78;39.43
76156;BME280;64906;51.290;7.348;2023-04-03T11:09:23;99999.63;;;19.76;39.39
76156;BME280;64906;51.290;7.348;2023-04-03T11:11:53;99999.34;;;19.77;39.28
76156;BME280;64906;51.290;7.348;2023-04-03T11:14:26;99991.97;;;19.78;39.23
76156;BME280;64906;51.290;7.348;2023-04-03T11:17:33;99990.88;;;19.79;39.22
76156;BME280;64906;51.290;7.348;2023-04-03T11:20:10;99985.66;;;19.77;39.19
76156;BME280;64906;51.290;7.348;2023-04-03T11:22:51;99988.97;;;19.79;39.44
76156;BME280;64906;51.290;7.348;2023-04-03T11:25:21;99984.59;;;19.78;39.16
76156;BME280;64906;51.290;7.348;2023-04-03T11:28:01;99987.31;;;19.78;39.44
76156;BME280;64906;51.290;7.348;2023-04-03T11:30:45;99983.47;;;19.79;39.15
76156;BME280;64906;51.290;7.348;2023-04-03T11:33:44;99975.84;;;19.81;39.26
76156;BME280;64906;51.290;7.348;2023-04-03T11:36:30;99986.53;;;19.83;39.30
76156;BME280;64906;51.290;7.348;2023-04-03T11:39:00;99979.41;;;19.82;39.10
76156;BME280;64906;51.290;7.348;2023-04-03T11:41:33;99974.75;;;19.82;39.13
76156;BME280;64906;51.290;7.348;2023-04-03T11:44:05;99967.34;;;19.83;39.06
76156;BME280;64906;51.290;7.348;2023-04-03T11:46:54;99962.72;;;19.83;38.76
76156;BME280;64906;51.290;7.348;2023-04-03T11:49:51;99961.88;;;19.83;39.06
76156;BME280;64906;51.290;7.348;2023-04-03T12:26:51;99937.53;;;19.86;38.55
76156;BME280;64906;51.290;7.348;2023-04-03T12:29:36;99933.69;;;19.87;38.75
76156;BME280;64906;51.290;7.348;2023-04-03T12:32:23;99926.28;;;19.88;38.52
76156;BME280;64906;51.290;7.348;2023-04-03T12:37:28;99923.81;;;19.86;38.55
76156;BME280;64906;51.290;7.348;2023-04-03T12:42:56;99926.56;;;19.86;38.91
76156;BME280;64906;51.290;7.348;2023-04-03T12:45:26;99923.81;;;19.86;38.59
76156;BME280;64906;51.290;7.348;2023-04-03T12:47:54;99916.97;;;19.89;38.36
76156;BME280;64906;51.290;7.348;2023-04-03T12:50:30;99920.81;;;19.88;38.33
76156;BME280;64906;51.290;7.348;2023-04-03T12:53:02;99920.81;;;19.88;38.47
76156;BME280;64906;51.290;7.348;2023-04-03T12:55:29;99918.59;;;19.85;38.62
76156;BME280;64906;51.290;7.348;2023-04-03T12:57:54;99911.75;;;19.87;38.30
76156;BME280;64906;51.290;7.348;2023-04-03T13:02:55;99922.16;;;19.85;38.44
76156;BME280;64906;51.290;7.348;2023-04-03T13:05:22;99913.69;;;19.87;38.55
76156;BME280;64906;51.290;7.348;2023-04-03T13:08:00;99899.72;;;19.88;38.42
76156;BME280;64906;51.290;7.348;2023-04-03T13:10:28;99908.22;;;19.87;38.33
76156;BME280;64906;51.290;7.348;2023-04-03T13:13:06;99903.81;;;19.86;38.29
76156;BME280;64906;51.290;7.348;2023-04-03T13:15:48;99912.88;;;19.86;38.22
76156;BME280;64906;51.290;7.348;2023-04-03T13:18:34;99906.53;;;19.86;38.46
76156;BME280;64906;51.290;7.348;2023-04-03T13:21:03;99910.13;;;19.86;38.53
76156;BME280;64906;51.290;7.348;2023-04-03T13:23:30;99909.28;;;19.86;38.33
76156;BME280;64906;51.290;7.348;2023-04-03T13:25:57;99902.16;;;19.85;38.31
76156;BME280;64906;51.290;7.348;2023-04-03T13:28:27;99894.75;;;19.85;38.39
76156;BME280;64906;51.290;7.348;2023-04-03T13:31:04;99896.69;;;19.85;38.51
76156;BME280;64906;51.290;7.348;2023-04-03T13:33:33;99895.00;;;19.84;38.50
76156;BME280;64906;51.290;7.348;2023-04-03T13:36:13;99900.22;;;19.85;38.25
76156;BME280;64906;51.290;7.348;2023-04-03T13:38:41;99896.69;;;19.85;38.22
76156;BME280;64906;51.290;7.348;2023-04-03T13:41:32;99890.09;;;19.86;38.14
76156;BME280;64906;51.290;7.348;2023-04-03T13:44:15;99890.69;;;19.88;38.08
76156;BME280;64906;51.290;7.348;2023-04-03T13:46:40;99882.97;;;19.85;38.24
76156;BME280;64906;51.290;7.348;2023-04-03T13:49:36;99882.16;;;19.84;38.25
76156;BME280;64906;51.290;7.348;2023-04-03T13:52:21;99883.78;;;19.85;38.33
76156;BME280;64906;51.290;7.348;2023-04-03T13:54:53;99878.31;;;19.85;38.43
76156;BME280;64906;51.290;7.348;2023-04-03T13:57:19;99877.50;;;19.85;38.33
76156;BME280;64906;51.290;7.348;2023-04-03T13:59:45;99872.03;;;19.85;38.13
76156;BME280;64906;51.290;7.348;2023-04-03T14:02:22;99880.25;;;19.85;38.26
76156;BME280;64906;51.290;7.348;2023-04-03T14:04:52;99869.53;;;19.83;38.35
76156;BME280;64906;51.290;7.348;2023-04-03T14:07:22;99864.06;;;19.83;38.21
76156;BME280;64906;51.290;7.348;2023-04-03T14:09:48;99861.88;;;19.85;38.40
76156;BME280;64906;51.290;7.348;2023-04-03T14:12:18;99860.78;;;19.86;38.17
76156;BME280;64906;51.290;7.348;2023-04-03T14:14:45;99861.06;;;19.85;38.29
76156;BME280;64906;51.290;7.348;2023-04-03T14:17:19;99857.47;;;19.84;38.09
76156;BME280;64906;51.290;7.348;2023-04-03T14:19:47;99862.13;;;19.84;38.17
76156;BME280;64906;51.290;7.348;2023-04-03T14:22:20;99857.47;;;19.84;38.08
76156;BME280;64906;51.290;7.348;2023-04-03T14:24:48;99864.88;;;19.84;38.01
76156;BME280;64906;51.290;7.348;2023-04-03T14:29:52;99858.88;;;19.87;38.15